Zanesville Municipal (ZZV)

 

Airport Diagram
No Airport Diagram Available
Current Weather/Forecast (VFR Conditions)
METAR KZZV 182353Z AUTO 20005KT 10SM SCT080 13/03 A2985 RMK AO2 SLP110 60000 T01330033 10161 20128 56001
TAF KZZV 182320Z 1900/1924 00000KT P6SM SCT100 FM191500 25006KT P6SM SCT120 FM191800 24010KT P6SM OVC050

Airport Information

All Charts
General
Chart Name View
TAKEOFF MINIMUMS
ALTERNATE MINIMUMS
TAKEOFF MINIMUMS
ALTERNATE MINIMUMS

Approaches
Chart Name Download
ILS OR LOC RWY 22
RNAV (GPS) RWY 04
RNAV (GPS) RWY 22
VOR RWY 04
VOR RWY 22
ILS OR LOC RWY 22
RNAV (GPS) RWY 04
RNAV (GPS) RWY 22
VOR RWY 04
VOR RWY 22


Airport Statistics
Departures Arrivals Local
All Collected Stats since June 2016: 16 14 0
2021 Stats: 1 1 0
April Stats: 0 1 0

Inbound Traffic (Arrivals) - 0

No inbound traffic.


Outbound Traffic (Departures) - 0

No outbound traffic.


Local Traffic (Pattern) - 0

No local traffic.